createdAt,value
2022-12-17T00:01:02.459Z,9.77
2022-12-17T00:02:17.554Z,9.48
2022-12-17T00:03:32.814Z,9.27
2022-12-17T00:04:48.306Z,8.75
2022-12-17T00:06:03.789Z,8.75
2022-12-17T00:07:18.970Z,8.57
2022-12-17T00:08:34.403Z,8.65
2022-12-17T00:09:50.510Z,8.80
2022-12-17T00:11:05.873Z,9.05
2022-12-17T00:12:21.028Z,8.48
2022-12-17T00:13:41.555Z,8.57
2022-12-17T00:14:56.705Z,9.63
2022-12-17T00:16:12.118Z,9.45
2022-12-17T00:17:27.609Z,9.02
2022-12-17T00:18:42.834Z,8.60
2022-12-17T00:19:57.784Z,9.00
2022-12-17T00:21:14.302Z,10.20
2022-12-17T00:22:29.468Z,11.00
2022-12-17T00:23:44.297Z,11.05
2022-12-17T00:24:59.159Z,10.77
2022-12-17T00:26:17.556Z,10.07
2022-12-17T00:27:32.782Z,11.52
2022-12-17T00:28:48.267Z,10.13
2022-12-17T00:30:03.351Z,9.32
2022-12-17T00:31:18.637Z,8.95
2022-12-17T00:32:33.333Z,9.43
2022-12-17T00:33:48.495Z,9.60
2022-12-17T00:35:03.910Z,8.52
2022-12-17T00:36:19.295Z,8.10
2022-12-17T00:37:34.559Z,9.35
2022-12-17T00:38:49.866Z,8.63
2022-12-17T00:40:05.206Z,7.53
2022-12-17T00:41:20.769Z,7.60
2022-12-17T00:42:35.744Z,6.63
2022-12-17T00:43:50.619Z,7.10
2022-12-17T00:45:06.754Z,6.25
2022-12-17T00:46:22.247Z,5.65
2022-12-17T00:47:37.709Z,5.95
2022-12-17T00:48:53.523Z,5.97
2022-12-17T00:50:08.703Z,6.80
2022-12-17T00:51:24.122Z,6.50
2022-12-17T00:53:58.157Z,6.53
2022-12-17T00:55:13.059Z,6.78
2022-12-17T00:56:28.581Z,6.57
2022-12-17T00:57:43.557Z,6.93
2022-12-17T00:58:58.724Z,6.95
2022-12-17T01:00:13.876Z,6.47
2022-12-17T01:01:40.092Z,6.60
2022-12-17T01:03:12.484Z,6.07
2022-12-17T01:04:28.115Z,6.47
2022-12-17T01:05:43.307Z,6.88
2022-12-17T01:06:58.284Z,6.63
2022-12-17T01:08:14.384Z,6.70
2022-12-17T01:09:29.791Z,6.93
2022-12-17T01:10:45.104Z,6.65
2022-12-17T01:12:00.548Z,6.25
2022-12-17T01:13:15.816Z,6.28
2022-12-17T01:14:30.931Z,6.72
2022-12-17T01:16:03.773Z,6.10
2022-12-17T01:17:19.132Z,5.70
2022-12-17T01:18:38.170Z,5.60
2022-12-17T01:19:53.528Z,5.95
2022-12-17T01:21:15.596Z,5.70
2022-12-17T01:22:30.854Z,6.30
2022-12-17T01:23:46.278Z,6.38
2022-12-17T01:25:01.523Z,7.38
2022-12-17T01:26:18.243Z,6.60
2022-12-17T01:27:33.766Z,7.47
2022-12-17T01:28:49.276Z,7.35
2022-12-17T01:30:04.635Z,6.78
2022-12-17T01:31:19.752Z,8.45
2022-12-17T01:32:35.357Z,7.93
2022-12-17T01:33:50.784Z,7.50
2022-12-17T01:35:06.062Z,7.30
2022-12-17T01:36:21.252Z,7.78
2022-12-17T01:37:36.535Z,7.80
2022-12-17T01:38:52.140Z,7.18
2022-12-17T01:40:07.067Z,6.97
2022-12-17T01:41:24.517Z,7.70
2022-12-17T01:42:39.675Z,8.00
2022-12-17T01:43:56.827Z,6.65
2022-12-17T01:45:13.074Z,6.97
2022-12-17T01:46:28.604Z,6.95
2022-12-17T01:47:45.968Z,8.00
2022-12-17T01:49:04.997Z,7.85
2022-12-17T01:50:20.495Z,7.82
2022-12-17T01:51:36.992Z,7.22
2022-12-17T01:52:52.847Z,8.15
2022-12-17T01:54:11.639Z,8.90
2022-12-17T01:55:27.045Z,8.57
2022-12-17T01:56:42.379Z,8.02
2022-12-17T01:57:58.088Z,8.73
2022-12-17T01:59:13.418Z,8.05
2022-12-17T02:00:32.166Z,7.60
2022-12-17T02:01:47.839Z,8.43
2022-12-17T02:03:03.771Z,8.20
2022-12-17T02:04:19.184Z,7.40
2022-12-17T02:05:34.715Z,7.15
2022-12-17T02:06:56.454Z,7.05
2022-12-17T02:08:50.985Z,5.78
2022-12-17T02:10:30.634Z,5.32
2022-12-17T02:12:18.168Z,6.55
2022-12-17T02:13:39.747Z,5.90
2022-12-17T02:15:00.894Z,5.50
2022-12-17T02:16:24.016Z,5.32
2022-12-17T02:17:43.967Z,4.15
2022-12-17T02:19:07.984Z,5.15
2022-12-17T02:20:32.259Z,4.88
2022-12-17T02:21:50.011Z,5.35
2022-12-17T02:23:14.185Z,5.05
2022-12-17T02:25:02.754Z,4.80
2022-12-17T02:26:51.985Z,5.45
2022-12-17T02:28:07.743Z,8.00
2022-12-17T02:29:25.625Z,10.70
2022-12-17T02:30:41.151Z,7.32
2022-12-17T02:31:59.761Z,6.95
2022-12-17T02:33:15.446Z,7.32
2022-12-17T02:34:30.610Z,7.70
2022-12-17T02:35:50.110Z,6.63
2022-12-17T02:37:05.018Z,6.78
2022-12-17T02:38:19.954Z,5.85
2022-12-17T02:39:35.185Z,6.10
2022-12-17T02:40:52.619Z,5.60
2022-12-17T02:42:15.343Z,5.90
2022-12-17T02:43:30.717Z,5.97
2022-12-17T02:44:47.323Z,5.70
2022-12-17T02:46:03.010Z,5.72
2022-12-17T02:47:21.594Z,4.68
2022-12-17T02:48:37.436Z,4.80
2022-12-17T02:49:52.953Z,5.10
2022-12-17T02:51:08.275Z,4.80
2022-12-17T02:52:23.796Z,5.38
2022-12-17T02:53:39.146Z,4.40
2022-12-17T02:54:54.068Z,4.60
2022-12-17T02:56:09.078Z,5.43
2022-12-17T02:57:24.515Z,4.47
2022-12-17T02:58:39.987Z,5.05
2022-12-17T02:59:54.866Z,5.30
2022-12-17T03:01:12.322Z,5.10
2022-12-17T03:02:27.780Z,5.53
2022-12-17T03:03:47.381Z,5.40
2022-12-17T03:05:21.407Z,4.97
2022-12-17T03:06:40.746Z,5.30
2022-12-17T03:07:55.903Z,5.22
2022-12-17T03:09:10.735Z,4.35
2022-12-17T03:10:26.197Z,4.32
2022-12-17T03:11:41.624Z,4.05
2022-12-17T03:12:56.429Z,4.40
2022-12-17T03:14:11.857Z,4.88
2022-12-17T03:15:27.444Z,4.45
2022-12-17T03:16:42.997Z,4.35
2022-12-17T03:17:58.653Z,4.88
2022-12-17T03:19:13.594Z,4.60
2022-12-17T03:20:28.877Z,3.75
2022-12-17T03:21:43.904Z,4.00
2022-12-17T03:22:59.485Z,4.45
2022-12-17T03:24:14.727Z,4.40
2022-12-17T03:25:29.977Z,4.72
2022-12-17T03:26:45.180Z,4.30
2022-12-17T03:28:00.785Z,4.50
2022-12-17T03:29:16.353Z,4.97
2022-12-17T03:30:35.734Z,3.92
2022-12-17T03:31:52.454Z,4.30
2022-12-17T03:33:07.765Z,4.13
2022-12-17T03:34:23.298Z,4.18
2022-12-17T03:35:38.201Z,4.38
2022-12-17T03:36:53.214Z,5.07
2022-12-17T03:38:08.605Z,5.18
2022-12-17T03:39:23.548Z,4.93
2022-12-17T03:40:38.779Z,4.47
2022-12-17T03:41:54.160Z,4.30
2022-12-17T03:43:09.228Z,4.45
2022-12-17T03:44:25.418Z,4.32
2022-12-17T03:45:40.830Z,4.35
2022-12-17T03:46:56.084Z,5.38
2022-12-17T03:48:21.703Z,6.03
2022-12-17T03:49:37.325Z,5.80
2022-12-17T03:50:52.840Z,5.70
2022-12-17T03:52:08.254Z,4.72
2022-12-17T03:53:24.365Z,4.50
2022-12-17T03:54:39.823Z,4.32
2022-12-17T03:55:55.305Z,4.32
2022-12-17T03:57:15.812Z,3.95
2022-12-17T03:58:31.277Z,5.18
2022-12-17T03:59:46.296Z,4.50
2022-12-17T04:01:01.790Z,5.05
2022-12-17T04:02:17.484Z,4.45
2022-12-17T04:03:32.944Z,4.63
2022-12-17T04:04:48.239Z,5.05
2022-12-17T04:06:03.964Z,4.40
2022-12-17T04:07:19.266Z,4.80
2022-12-17T04:08:34.897Z,4.43
2022-12-17T04:09:50.245Z,3.95
2022-12-17T04:11:05.312Z,4.70
2022-12-17T04:12:20.476Z,3.83
2022-12-17T04:13:40.448Z,4.63
2022-12-17T04:14:56.308Z,4.10
2022-12-17T04:16:11.328Z,4.20
2022-12-17T04:17:26.594Z,4.28
2022-12-17T04:18:41.674Z,4.32
2022-12-17T04:19:56.657Z,4.07
2022-12-17T04:21:11.864Z,4.53
2022-12-17T04:22:27.213Z,4.03
2022-12-17T04:23:42.778Z,4.10
2022-12-17T04:24:58.085Z,4.07
2022-12-17T04:26:12.897Z,3.97
2022-12-17T04:27:28.315Z,4.15
2022-12-17T04:28:43.858Z,3.83
2022-12-17T04:29:59.283Z,4.22
2022-12-17T04:31:14.900Z,4.35
2022-12-17T04:32:34.896Z,3.67
2022-12-17T04:34:04.103Z,4.10
2022-12-17T04:35:18.983Z,3.60
2022-12-17T04:36:35.544Z,4.40
2022-12-17T04:37:50.988Z,3.95
2022-12-17T04:39:06.436Z,3.65
2022-12-17T04:40:22.397Z,3.15
2022-12-17T04:41:37.605Z,3.95
2022-12-17T04:42:53.009Z,3.42
2022-12-17T04:44:08.030Z,3.25
2022-12-17T04:45:23.500Z,3.28
2022-12-17T04:46:38.495Z,3.60
2022-12-17T04:47:53.563Z,3.55
2022-12-17T04:49:09.043Z,3.00
2022-12-17T04:50:24.784Z,3.10
2022-12-17T04:51:40.304Z,3.28
2022-12-17T04:52:55.847Z,2.95
2022-12-17T04:54:11.176Z,3.13
2022-12-17T04:55:26.717Z,3.00
2022-12-17T04:56:42.261Z,3.33
2022-12-17T04:57:57.823Z,3.10
2022-12-17T04:59:12.845Z,3.30
2022-12-17T05:00:28.733Z,3.08
2022-12-17T05:01:44.303Z,3.30
2022-12-17T05:02:59.728Z,3.17
2022-12-17T05:04:15.048Z,6.70
2022-12-17T05:05:30.111Z,7.20
2022-12-17T05:06:49.835Z,11.88
2022-12-17T05:08:04.878Z,15.77
2022-12-17T05:09:19.860Z,13.40
2022-12-17T05:10:35.205Z,7.10
2022-12-17T05:11:50.789Z,4.70
2022-12-17T05:13:05.981Z,3.85
2022-12-17T05:14:21.394Z,4.03
2022-12-17T05:15:36.817Z,3.97
2022-12-17T05:16:52.366Z,5.85
2022-12-17T05:18:07.844Z,10.85
2022-12-17T05:19:22.851Z,13.35
2022-12-17T05:20:38.325Z,6.57
2022-12-17T05:21:53.738Z,7.85
2022-12-17T05:23:09.014Z,13.60
2022-12-17T05:24:24.441Z,9.68
2022-12-17T05:25:40.333Z,10.45
2022-12-17T05:26:55.888Z,11.38
2022-12-17T05:28:12.599Z,4.28
2022-12-17T05:29:27.893Z,4.38
2022-12-17T05:30:43.247Z,5.38
2022-12-17T05:31:58.197Z,6.85
2022-12-17T05:33:20.831Z,7.43
2022-12-17T05:34:35.803Z,18.15
2022-12-17T05:35:51.254Z,10.23
2022-12-17T05:37:06.282Z,10.38
2022-12-17T05:38:29.436Z,6.93
2022-12-17T05:39:45.016Z,6.40
2022-12-17T05:41:00.345Z,5.55
2022-12-17T05:42:15.330Z,6.30
2022-12-17T05:43:31.737Z,4.50
2022-12-17T05:44:46.669Z,4.28
2022-12-17T05:46:03.096Z,4.13
2022-12-17T05:47:18.381Z,3.95
2022-12-17T05:48:33.464Z,4.75
2022-12-17T05:49:48.947Z,4.88
2022-12-17T05:51:09.305Z,4.03
2022-12-17T05:52:25.267Z,4.47
2022-12-17T05:53:40.812Z,4.07
2022-12-17T05:54:55.923Z,8.55
2022-12-17T05:56:12.305Z,4.63
2022-12-17T05:57:27.543Z,3.55
2022-12-17T05:58:42.577Z,4.30
2022-12-17T05:59:57.893Z,5.38
2022-12-17T06:01:22.514Z,5.68
2022-12-17T06:02:37.863Z,4.22
2022-12-17T06:03:53.608Z,4.28
2022-12-17T06:05:08.527Z,4.00
2022-12-17T06:06:23.766Z,3.67
2022-12-17T06:07:39.266Z,4.35
2022-12-17T06:08:54.427Z,12.18
2022-12-17T06:10:09.615Z,10.88
2022-12-17T06:11:41.807Z,5.80
2022-12-17T06:12:57.007Z,3.95
2022-12-17T06:14:12.209Z,7.95
2022-12-17T06:15:27.708Z,16.85
2022-12-17T06:16:42.878Z,8.18
2022-12-17T06:17:58.119Z,9.70
2022-12-17T06:19:13.140Z,4.07
2022-12-17T06:20:28.895Z,3.72
2022-12-17T06:21:43.928Z,4.53
2022-12-17T06:22:59.432Z,4.13
2022-12-17T06:24:14.883Z,9.13
2022-12-17T06:25:30.222Z,7.45
2022-12-17T06:26:45.223Z,8.35
2022-12-17T06:28:11.034Z,3.90
2022-12-17T06:29:26.332Z,8.43
2022-12-17T06:30:41.343Z,16.45
2022-12-17T06:31:56.335Z,8.60
2022-12-17T06:33:11.686Z,6.03
2022-12-17T06:34:26.923Z,3.97
2022-12-17T06:35:41.856Z,5.50
2022-12-17T06:36:56.833Z,5.93
2022-12-17T06:38:23.778Z,5.45
2022-12-17T06:39:39.152Z,8.23
2022-12-17T06:40:54.446Z,14.52
2022-12-17T06:42:09.276Z,19.80
2022-12-17T06:43:25.512Z,9.52
2022-12-17T06:44:40.374Z,12.32
2022-12-17T06:45:55.355Z,10.50
2022-12-17T06:47:10.682Z,30.98
2022-12-17T06:48:27.432Z,27.90
2022-12-17T06:49:42.873Z,13.98
2022-12-17T06:50:58.009Z,7.90
2022-12-17T06:52:12.898Z,4.97
2022-12-17T06:53:29.157Z,4.32
2022-12-17T06:54:44.419Z,17.25
2022-12-17T06:55:59.436Z,13.48
2022-12-17T06:57:14.612Z,4.70
2022-12-17T06:58:29.542Z,3.00
2022-12-17T06:59:44.654Z,3.72
2022-12-17T07:01:00.213Z,4.07
2022-12-17T07:02:15.240Z,3.80
2022-12-17T07:03:30.775Z,2.95
2022-12-17T07:04:45.829Z,3.63
2022-12-17T07:06:01.563Z,3.88
2022-12-17T07:07:17.046Z,4.28
2022-12-17T07:08:32.526Z,3.40
2022-12-17T07:09:47.872Z,3.33
2022-12-17T07:11:03.036Z,3.25
2022-12-17T07:12:17.964Z,3.85
2022-12-17T07:13:32.985Z,3.80
2022-12-17T07:14:48.287Z,4.47
2022-12-17T07:16:03.303Z,4.75
2022-12-17T07:17:18.193Z,4.65
2022-12-17T07:18:33.696Z,4.20
2022-12-17T07:19:48.830Z,6.55
2022-12-17T07:21:04.297Z,7.70
2022-12-17T07:22:19.629Z,7.53
2022-12-17T07:23:35.141Z,7.95
2022-12-17T07:24:50.445Z,9.23
2022-12-17T07:26:05.390Z,8.48
2022-12-17T07:27:20.324Z,6.07
2022-12-17T07:28:35.320Z,4.95
2022-12-17T07:29:50.392Z,5.13
2022-12-17T07:31:05.678Z,5.55
2022-12-17T07:32:21.136Z,7.05
2022-12-17T07:33:36.795Z,7.15
2022-12-17T07:34:52.204Z,5.75
2022-12-17T07:36:07.144Z,4.88
2022-12-17T07:37:22.459Z,5.20
2022-12-17T07:38:37.337Z,4.88
2022-12-17T07:39:52.407Z,5.70
2022-12-17T07:41:08.015Z,4.82
2022-12-17T07:42:23.490Z,5.13
2022-12-17T07:43:39.330Z,5.25
2022-12-17T07:44:55.136Z,5.75
2022-12-17T07:46:10.753Z,4.82
2022-12-17T07:47:25.838Z,5.13
2022-12-17T07:48:41.150Z,4.47
2022-12-17T07:49:56.397Z,3.95
2022-12-17T07:51:11.906Z,4.40
2022-12-17T07:52:26.913Z,8.05
2022-12-17T07:53:41.693Z,5.10
2022-12-17T07:54:56.847Z,5.28
2022-12-17T07:56:11.654Z,4.88
2022-12-17T07:57:26.981Z,4.85
2022-12-17T07:58:41.895Z,5.07
2022-12-17T07:59:57.017Z,4.38
2022-12-17T08:01:12.780Z,5.00
2022-12-17T08:02:29.462Z,4.68
2022-12-17T08:03:44.930Z,4.88
2022-12-17T08:05:00.228Z,7.95
2022-12-17T08:06:18.054Z,7.95
2022-12-17T08:07:33.290Z,6.72
2022-12-17T08:08:48.421Z,5.10
2022-12-17T08:10:03.251Z,6.18
2022-12-17T08:11:18.336Z,31.90
2022-12-17T08:12:34.463Z,20.55
2022-12-17T08:13:49.420Z,11.50
2022-12-17T08:15:04.499Z,7.63
2022-12-17T08:16:19.336Z,5.82
2022-12-17T08:17:34.786Z,5.15
2022-12-17T08:18:49.967Z,5.78
2022-12-17T08:20:05.007Z,5.47
2022-12-17T08:21:24.390Z,51.47
2022-12-17T08:22:39.653Z,49.88
2022-12-17T08:23:54.645Z,15.13
2022-12-17T08:25:09.621Z,9.73
2022-12-17T08:26:25.129Z,7.93
2022-12-17T08:27:40.679Z,6.70
2022-12-17T08:28:56.242Z,17.95
2022-12-17T08:30:11.935Z,9.05
2022-12-17T08:31:27.094Z,7.65
2022-12-17T08:32:42.453Z,9.68
2022-12-17T08:33:57.650Z,13.43
2022-12-17T08:35:12.840Z,7.75
2022-12-17T08:36:27.800Z,13.13
2022-12-17T08:37:42.983Z,5.40
2022-12-17T08:38:58.354Z,5.45
2022-12-17T08:40:13.316Z,7.55
2022-12-17T08:41:28.316Z,5.57
2022-12-17T08:42:44.003Z,5.78
2022-12-17T08:43:58.817Z,5.65
2022-12-17T08:45:13.963Z,5.38
2022-12-17T08:46:29.118Z,5.30
2022-12-17T08:47:44.228Z,4.82
2022-12-17T08:48:59.714Z,6.60
2022-12-17T08:50:15.053Z,8.85
2022-12-17T08:51:29.929Z,10.85
2022-12-17T08:52:45.063Z,6.38
2022-12-17T08:54:00.163Z,6.05
2022-12-17T08:55:15.116Z,5.88
2022-12-17T08:56:30.006Z,5.25
2022-12-17T08:57:44.918Z,5.35
2022-12-17T08:58:59.851Z,5.10
2022-12-17T09:00:14.767Z,5.40
2022-12-17T09:01:30.279Z,4.88
2022-12-17T09:02:45.606Z,6.32
2022-12-17T09:04:01.072Z,4.68
2022-12-17T09:05:15.835Z,4.20
2022-12-17T09:06:37.356Z,3.50
2022-12-17T09:07:54.021Z,3.55
2022-12-17T09:09:08.867Z,2.88
2022-12-17T09:10:24.348Z,3.05
2022-12-17T09:11:39.441Z,3.25
2022-12-17T09:12:55.356Z,3.88
2022-12-17T09:14:12.910Z,3.20
2022-12-17T09:15:28.123Z,2.90
2022-12-17T09:16:43.584Z,3.88
2022-12-17T09:17:58.974Z,3.85
2022-12-17T09:19:14.048Z,3.53
2022-12-17T09:20:29.824Z,2.90
2022-12-17T09:21:49.943Z,2.67
2022-12-17T09:23:04.770Z,2.42
2022-12-17T09:24:19.866Z,2.28
2022-12-17T09:25:35.337Z,2.13
2022-12-17T09:26:50.666Z,2.17
2022-12-17T09:28:06.052Z,2.03
2022-12-17T09:29:21.853Z,2.25
2022-12-17T09:30:37.463Z,2.50
2022-12-17T09:31:53.138Z,2.47
2022-12-17T09:33:08.102Z,1.60
2022-12-17T09:34:23.591Z,1.60
2022-12-17T09:35:38.831Z,1.60
2022-12-17T09:36:54.394Z,1.40
2022-12-17T09:38:16.065Z,2.40
2022-12-17T09:39:31.264Z,1.50
2022-12-17T09:40:48.603Z,1.88
2022-12-17T09:42:10.396Z,1.85
2022-12-17T09:43:39.325Z,1.50
2022-12-17T09:45:26.813Z,1.30
2022-12-17T09:46:54.619Z,1.30
2022-12-17T09:48:26.898Z,2.90
2022-12-17T09:49:47.609Z,5.63
2022-12-17T09:51:05.061Z,1.80
2022-12-17T09:52:22.600Z,2.28
2022-12-17T09:53:42.668Z,2.45
2022-12-17T09:55:05.246Z,1.10
2022-12-17T09:56:20.726Z,3.22
2022-12-17T09:57:40.362Z,1.50
2022-12-17T09:58:58.657Z,1.65
2022-12-17T10:00:13.885Z,2.35
2022-12-17T10:01:41.193Z,2.30
2022-12-17T10:02:58.552Z,3.05
2022-12-17T10:04:14.096Z,2.60
2022-12-17T10:05:40.101Z,5.25
2022-12-17T10:06:55.240Z,3.45
2022-12-17T10:08:12.276Z,2.10
2022-12-17T10:09:36.292Z,3.38
2022-12-17T10:10:52.180Z,3.55
2022-12-17T10:12:07.551Z,3.22
2022-12-17T10:13:30.736Z,2.22
2022-12-17T10:14:46.264Z,1.55
2022-12-17T10:16:02.130Z,1.90
2022-12-17T10:17:17.488Z,1.90
2022-12-17T10:18:35.206Z,1.60
2022-12-17T10:19:54.814Z,1.10
2022-12-17T10:21:29.559Z,1.58
2022-12-17T10:22:45.047Z,2.40
2022-12-17T10:24:00.412Z,2.05
2022-12-17T10:25:15.970Z,1.73
2022-12-17T10:26:44.593Z,1.60
2022-12-17T10:28:00.339Z,2.30
2022-12-17T10:29:34.004Z,4.05
2022-12-17T10:30:49.872Z,2.40
2022-12-17T10:32:05.195Z,4.35
2022-12-17T10:33:25.286Z,4.22
2022-12-17T10:34:40.336Z,4.55
2022-12-17T10:35:56.401Z,3.83
2022-12-17T10:37:12.473Z,3.97
2022-12-17T10:38:46.147Z,1.98
2022-12-17T10:40:01.896Z,1.88
2022-12-17T10:41:17.272Z,1.60
2022-12-17T10:42:58.828Z,1.65
2022-12-17T10:44:13.984Z,1.38
2022-12-17T10:45:44.483Z,1.63
2022-12-17T10:46:59.463Z,1.17
2022-12-17T10:48:15.022Z,16.05
2022-12-17T10:49:42.140Z,3.00
2022-12-17T10:51:00.353Z,2.80
2022-12-17T10:52:48.652Z,3.03
2022-12-17T10:54:08.474Z,2.03
2022-12-17T10:55:24.954Z,1.40
2022-12-17T10:56:45.288Z,2.50
2022-12-17T10:58:01.639Z,2.30
2022-12-17T10:59:17.618Z,2.47
2022-12-17T11:00:49.691Z,1.48
2022-12-17T11:02:05.676Z,1.50
2022-12-17T11:03:22.877Z,1.80
2022-12-17T11:04:55.871Z,2.10
2022-12-17T11:06:13.547Z,3.60
2022-12-17T11:07:34.758Z,3.65
2022-12-17T11:08:50.777Z,1.90
2022-12-17T11:10:10.356Z,2.75
2022-12-17T11:11:31.130Z,2.45
2022-12-17T11:13:00.767Z,2.13
2022-12-17T11:14:19.730Z,2.05
2022-12-17T11:16:18.005Z,2.30
2022-12-17T11:17:37.425Z,1.60
2022-12-17T11:18:58.661Z,2.20
2022-12-17T11:20:19.504Z,6.18
2022-12-17T11:21:40.513Z,4.00
2022-12-17T11:23:15.211Z,6.00
2022-12-17T11:24:40.062Z,8.20
2022-12-17T11:26:06.903Z,22.30
2022-12-17T11:27:26.153Z,6.93
2022-12-17T11:28:47.069Z,8.30
2022-12-17T11:30:04.354Z,2.22
2022-12-17T11:31:31.836Z,3.28
2022-12-17T11:33:19.738Z,7.53
2022-12-17T11:34:55.808Z,10.43
2022-12-17T11:36:32.461Z,4.35
2022-12-17T11:38:04.900Z,2.50
2022-12-17T11:39:34.829Z,5.28
2022-12-17T11:40:52.826Z,6.68
2022-12-17T11:42:11.173Z,5.85
2022-12-17T11:43:46.887Z,4.40
2022-12-17T11:45:24.435Z,3.78
2022-12-17T11:47:11.502Z,1.83
2022-12-17T11:48:35.973Z,1.80
2022-12-17T11:50:18.332Z,1.67
2022-12-17T11:52:23.253Z,1.83
2022-12-17T11:53:41.352Z,2.42
2022-12-17T11:54:59.415Z,2.13
2022-12-17T11:56:55.608Z,1.85
2022-12-17T11:58:23.338Z,1.70
2022-12-17T11:59:52.471Z,65.63
2022-12-17T12:01:24.982Z,86.75
2022-12-17T12:03:25.376Z,41.85
2022-12-17T12:05:05.435Z,18.50
2022-12-17T12:06:29.360Z,7.80
2022-12-17T12:07:49.339Z,90.60
2022-12-17T12:09:31.574Z,39.88
2022-12-17T12:11:16.239Z,17.30
2022-12-17T12:12:40.239Z,18.30
2022-12-17T12:14:24.489Z,14.15
2022-12-17T12:16:13.849Z,31.33
2022-12-17T12:17:45.797Z,3.80
2022-12-17T12:19:13.210Z,12.15
2022-12-17T12:21:04.492Z,11.80
2022-12-17T12:22:31.545Z,4.47
2022-12-17T12:24:25.555Z,6.35
2022-12-17T12:25:50.607Z,4.25
2022-12-17T12:27:31.878Z,3.70
2022-12-17T12:28:53.942Z,3.13
2022-12-17T12:30:28.088Z,2.08
2022-12-17T12:31:48.589Z,2.67
2022-12-17T12:33:10.161Z,3.05
2022-12-17T12:34:32.718Z,2.38
2022-12-17T12:35:48.881Z,3.65
2022-12-17T12:37:05.362Z,7.43
2022-12-17T12:38:20.915Z,24.35
2022-12-17T12:39:41.325Z,7.30
2022-12-17T12:41:08.814Z,3.92
2022-12-17T12:42:39.684Z,4.15
2022-12-17T12:43:59.501Z,2.83
2022-12-17T12:45:31.792Z,2.72
2022-12-17T12:47:11.679Z,3.92
2022-12-17T12:48:47.203Z,4.50
2022-12-17T12:50:22.847Z,3.50
2022-12-17T12:51:46.337Z,2.50
2022-12-17T12:53:04.344Z,4.63
2022-12-17T12:54:21.180Z,3.13
2022-12-17T12:55:36.429Z,4.07
2022-12-17T12:56:54.305Z,5.68
2022-12-17T12:58:23.892Z,4.82
2022-12-17T12:59:49.196Z,2.63
2022-12-17T13:01:04.212Z,2.80
2022-12-17T13:02:19.906Z,4.35
2022-12-17T13:04:07.250Z,3.22
2022-12-17T13:05:33.760Z,2.60
2022-12-17T13:06:54.160Z,2.70
2022-12-17T13:08:10.263Z,5.28
2022-12-17T13:09:15.921Z,3.35
2022-12-17T13:10:28.614Z,2.83
2022-12-17T13:11:36.057Z,3.42
2022-12-17T13:12:45.796Z,2.08
2022-12-17T13:13:56.161Z,2.78
2022-12-17T13:14:58.546Z,1.90
2022-12-17T13:16:41.026Z,4.32
2022-12-17T13:18:27.552Z,5.80
2022-12-17T13:19:37.873Z,6.00
2022-12-17T13:20:35.244Z,8.07
2022-12-17T13:21:32.176Z,4.57
2022-12-17T13:22:36.136Z,2.90
2022-12-17T13:23:38.035Z,2.45
2022-12-17T13:24:34.684Z,8.70
2022-12-17T13:25:31.803Z,5.00
2022-12-17T13:26:44.022Z,7.95
2022-12-17T13:27:41.965Z,8.53
2022-12-17T13:28:38.875Z,7.65
2022-12-17T13:29:37.908Z,8.73
2022-12-17T13:30:36.801Z,14.43
2022-12-17T13:32:01.102Z,45.72
2022-12-17T13:33:19.609Z,6.40
2022-12-17T13:34:26.070Z,3.97
2022-12-17T13:35:37.668Z,4.30
2022-12-17T13:36:58.417Z,2.88
2022-12-17T13:38:07.523Z,4.55
2022-12-17T13:39:31.536Z,4.80
2022-12-17T13:40:33.760Z,4.60
2022-12-17T13:41:33.779Z,4.55
2022-12-17T13:42:32.892Z,4.85
2022-12-17T13:43:34.311Z,2.83
2022-12-17T13:44:40.223Z,3.22
2022-12-17T13:45:38.859Z,3.80
2022-12-17T13:46:46.977Z,4.75
2022-12-17T13:47:44.117Z,3.25
2022-12-17T13:48:41.875Z,2.20
2022-12-17T13:49:38.531Z,2.00
2022-12-17T13:50:36.457Z,1.92
2022-12-17T13:51:35.435Z,2.78
2022-12-17T13:52:33.738Z,3.40
2022-12-17T13:53:34.171Z,2.55
2022-12-17T13:54:31.082Z,1.77
2022-12-17T13:55:29.303Z,2.40
2022-12-17T13:56:29.632Z,1.92
2022-12-17T13:57:26.287Z,2.13
2022-12-17T13:58:33.393Z,1.73
2022-12-17T13:59:30.205Z,1.92
2022-12-17T14:00:30.403Z,1.85
2022-12-17T14:01:27.150Z,1.67
2022-12-17T14:02:25.654Z,1.70
2022-12-17T14:03:42.922Z,1.98
2022-12-17T14:04:40.887Z,1.65
2022-12-17T14:05:42.399Z,3.17
2022-12-17T14:06:39.147Z,3.53
2022-12-17T14:07:39.208Z,3.35
2022-12-17T14:08:36.736Z,2.47
2022-12-17T14:09:38.781Z,2.60
2022-12-17T14:10:35.617Z,4.85
2022-12-17T14:11:52.343Z,5.30
2022-12-17T14:12:50.063Z,2.95
2022-12-17T14:13:49.114Z,1.60
2022-12-17T14:14:48.488Z,1.73
2022-12-17T14:15:50.244Z,2.42
2022-12-17T14:16:50.782Z,1.92
2022-12-17T14:17:49.834Z,1.80
2022-12-17T14:18:53.876Z,2.08
2022-12-17T14:20:05.392Z,1.73
2022-12-17T14:21:02.590Z,1.67
2022-12-17T14:22:00.490Z,3.30
2022-12-17T14:23:03.334Z,3.67
2022-12-17T14:24:00.026Z,5.55
2022-12-17T14:24:56.797Z,5.75
2022-12-17T14:25:54.127Z,4.32
2022-12-17T14:26:53.685Z,3.60
2022-12-17T14:28:01.784Z,3.92
2022-12-17T14:28:58.455Z,3.35
2022-12-17T14:29:56.894Z,3.03
2022-12-17T14:31:32.137Z,3.15
2022-12-17T14:32:25.312Z,3.13
2022-12-17T14:33:30.827Z,3.88
2022-12-17T14:34:27.512Z,5.68
2022-12-17T14:35:25.643Z,9.10
2022-12-17T14:36:23.760Z,13.23
2022-12-17T14:37:23.584Z,10.40
2022-12-17T14:38:36.924Z,10.18
2022-12-17T14:39:34.887Z,15.55
2022-12-17T14:40:31.575Z,14.55
2022-12-17T14:41:47.509Z,11.25
2022-12-17T14:42:44.657Z,5.82
2022-12-17T14:43:41.222Z,3.90
2022-12-17T14:44:50.310Z,4.22
2022-12-17T14:46:12.533Z,4.88
2022-12-17T14:47:22.615Z,6.60
2022-12-17T14:48:19.250Z,5.80
2022-12-17T14:49:19.493Z,7.43
2022-12-17T14:50:16.092Z,7.38
2022-12-17T14:51:27.702Z,7.82
2022-12-17T14:52:48.832Z,6.97
2022-12-17T14:53:45.459Z,4.55
2022-12-17T14:54:46.893Z,5.03
2022-12-17T14:55:55.935Z,5.18
2022-12-17T14:56:54.732Z,19.88
2022-12-17T14:57:53.214Z,30.00
2022-12-17T14:58:49.847Z,50.35
2022-12-17T14:59:46.507Z,12.00
2022-12-17T15:00:47.509Z,124.68
2022-12-17T15:01:44.385Z,9.32
2022-12-17T15:02:43.245Z,16.55
2022-12-17T15:03:48.038Z,18.30
2022-12-17T15:04:44.879Z,7.63
2022-12-17T15:05:41.512Z,91.47
2022-12-17T15:06:38.134Z,32.97
2022-12-17T15:07:34.729Z,5.80
2022-12-17T15:08:42.728Z,41.95
2022-12-17T15:09:40.600Z,201.57
2022-12-17T15:10:37.162Z,8.18
2022-12-17T15:11:34.177Z,6.20
2022-12-17T15:12:30.800Z,62.75
2022-12-17T15:13:27.541Z,62.83
2022-12-17T15:14:24.133Z,48.53
2022-12-17T15:15:21.976Z,88.40
2022-12-17T15:16:18.707Z,40.33
2022-12-17T15:17:16.181Z,35.15
2022-12-17T15:18:12.799Z,25.92
2022-12-17T15:19:09.424Z,5.43
2022-12-17T15:20:06.486Z,4.85
2022-12-17T15:21:03.887Z,3.90
2022-12-17T15:22:00.508Z,7.97
2022-12-17T15:22:57.172Z,5.68
2022-12-17T15:23:54.389Z,10.93
2022-12-17T15:24:51.366Z,8.38
2022-12-17T15:25:50.186Z,11.88
2022-12-17T15:26:47.554Z,22.45
2022-12-17T15:27:45.132Z,5.18
2022-12-17T15:28:42.829Z,4.93
2022-12-17T15:29:39.447Z,18.10
2022-12-17T15:30:36.137Z,56.40
2022-12-17T15:31:35.648Z,33.85
2022-12-17T15:32:32.655Z,33.25
2022-12-17T15:33:29.359Z,39.65
2022-12-17T15:34:26.033Z,7.55
2022-12-17T15:35:22.874Z,4.43
2022-12-17T15:36:19.538Z,48.72
2022-12-17T15:37:21.101Z,302.75
2022-12-17T15:38:20.668Z,364.77
2022-12-17T15:39:17.256Z,479.73
2022-12-17T15:40:13.921Z,83.75
2022-12-17T15:41:29.206Z,39.65
2022-12-17T15:42:44.582Z,133.25
2022-12-17T15:43:41.167Z,278.45
2022-12-17T15:44:37.777Z,135.85
2022-12-17T15:45:34.392Z,27.08
2022-12-17T15:46:31.031Z,49.05
2022-12-17T15:47:27.626Z,29.55
2022-12-17T15:48:24.408Z,5.03
2022-12-17T15:49:21.324Z,31.42
2022-12-17T15:50:17.926Z,48.45
2022-12-17T15:51:19.366Z,66.80
2022-12-17T15:52:16.445Z,30.70
2022-12-17T15:53:13.295Z,49.30
2022-12-17T15:54:09.940Z,159.85
2022-12-17T15:55:06.885Z,126.60
2022-12-17T15:56:06.799Z,192.18
2022-12-17T15:57:03.536Z,207.15
2022-12-17T15:58:00.166Z,101.30
2022-12-17T15:58:58.189Z,341.30
2022-12-17T15:59:54.829Z,454.60
2022-12-17T16:00:51.460Z,403.98
2022-12-17T16:01:48.781Z,352.52
2022-12-17T16:02:45.689Z,88.10
2022-12-17T16:03:42.669Z,22.45
2022-12-17T16:04:39.424Z,14.60
2022-12-17T16:05:36.026Z,4.88
2022-12-17T16:06:33.589Z,4.53
2022-12-17T16:07:30.270Z,11.27
2022-12-17T16:08:26.833Z,4.90
2022-12-17T16:09:25.271Z,43.47
2022-12-17T16:10:21.872Z,56.35
2022-12-17T16:11:18.446Z,27.88
2022-12-17T16:12:15.109Z,13.88
2022-12-17T16:13:12.077Z,24.98
2022-12-17T16:14:08.966Z,19.23
2022-12-17T16:15:06.697Z,12.45
2022-12-17T16:16:04.423Z,17.52
2022-12-17T16:17:01.168Z,33.55
2022-12-17T16:17:57.818Z,60.88
2022-12-17T16:18:54.486Z,42.28
2022-12-17T16:19:51.081Z,19.75
2022-12-17T16:20:47.727Z,33.85
2022-12-17T16:21:46.982Z,39.22
2022-12-17T16:22:44.489Z,11.05
2022-12-17T16:23:41.408Z,18.10
2022-12-17T16:24:38.097Z,32.03
2022-12-17T16:25:36.731Z,77.70